Mackinaw City, MI

7:52 PM EDT on June 03, 2015 (GMT -0400)
Harbor Springs | | Change Station
CLOSE
Current Station
Airport
Location: Harbor Springs,
Elevation: 686 ft
Nearby Weather Stations

Elev 686 ft 45.43 °N, 84.91 °W | Updated 17 minutes ago

Clear
Clear
53 °F
Feels Like 53 °F
N
9
Wind Variable Wind from SW

Today
High -- | Low -- °F
--% Chance of Precip.
Yesterday
High -- | Low -- °F
Precip. -- in
5:51 AM 9:23 PM
Full, 98% visible
Pressure 30.02 in
Visibility 10.0 miles
Clouds Clear
Dew Point 46 °F
Humidity 76%
Rainfall 0.00 in
Snow Depth Not available.
UV 1 out of 12
Pollen 7.90 out of 12
Air Quality Not available.
Flu Activity Sporadic
METAR KMGN 032335Z AUTO 22008KT 10SM CLR 11/07 A3002 RMK AO2 T01180077

More Conditions Fewer Conditions

Pressure 30.02 in
Visibility 10.0 miles
Clouds Clear
Dew Point 46 °F
Humidity 76%
Rainfall 0.00 in
Snow Depth Not available.
UV 1 out of 12
Pollen 7.90 out of 12
Air Quality Not available.
Flu Activity Sporadic
METAR KMGN 032335Z AUTO 22008KT 10SM CLR 11/07 A3002 RMK AO2 T01180077

More Conditions Fewer Conditions

Nowcast | as of 7:00 PM EDT on June 3, 2015

At 8 PM...mostly clear. Temperature 62. West winds 5 mph. At 10 PM...mostly clear. Temperature 57. Light winds. At 12 am...mostly clear. Temperature 54. Light winds. At 2 am...partly cloudy. Temperature 54. Light winds.

×

10-Day Weather Forecast

×

Almanac

Astronomy

Jun. 03, 2015 Rise Set
Actual Time
Civil Twilight
Nautical Twilight
Astronomical Twilight
Moon
Length of Visible Light
Length of Day
Tomorrow will be .
, % of the Moon is Illuminated

Today's Extremes

State Highs State Lows

Community

WunderPhotos

Upload Photos

1,826,304 photos uploaded!

WunderBlogs® & News

Nearby

Air Quality

  Air Quality AQ Index Pollutant
Not available.

Snow Depth

Station Depth Elevation

Earthquake Activity

City Distance Mag. Time & Date
Minimum magnitude displayed is 2.5.

Coastal Water Temperatures

Place Temperature

Stations

Nearby Weather Stations

Station Location Temp. Windchill Dew Point Humidity Wind Precip. Elev Updated Type